Time;durP1;ratioP1;P1;durP2;ratioP2;P2;SDS_P1;SDS_P2;PMS_P1;PMS_P2;Temp;Humidity;BMP_temperature;BMP_pressure;BME280_temperature;BME280_humidity;BME280_pressure;Samples;Min_cycle;Max_cycle;Signal;HPM_P1;HPM_P2
2022/03/02 00:00:02;;;;;;;44.58;25.15;;;5.50;99.90;;;;;;6219325;23;20022;-89
2022/03/02 00:02:33;;;;;;;42.55;26.48;;;5.40;99.90;;;;;;6220785;23;20099;-90
2022/03/02 00:05:09;;;;;;;43.00;26.42;;;5.40;99.90;;;;;;6219891;23;20012;-89
2022/03/02 00:07:52;;;;;;;41.88;25.45;;;5.50;99.90;;;;;;6244891;23;20016;-88
2022/03/02 00:10:39;;;;;;;43.78;25.52;;;5.40;99.90;;;;;;6218706;23;20078;-88
2022/03/02 00:13:19;;;;;;;40.38;25.85;;;5.40;99.90;;;;;;6243040;23;20016;-88
2022/03/02 00:15:50;;;;;;;44.05;26.83;;;5.50;99.90;;;;;;6219895;23;20016;-88
2022/03/02 00:18:19;;;;;;;46.58;26.88;;;5.40;99.90;;;;;;6219057;23;20089;-89
2022/03/02 00:21:09;;;;;;;;;;;;;;;;;;;;;
2022/03/02 00:24:03;;;;;;;;;;;;;;;;;;;;;
2022/03/02 00:26:41;;;;;;;44.03;25.95;;;5.40;99.90;;;;;;6244486;23;20054;-90
2022/03/02 00:29:09;;;;;;;44.25;26.73;;;5.40;99.90;;;;;;6222829;22;20024;-88
2022/03/02 00:32:03;;;;;;;51.05;27.30;;;5.40;99.90;;;;;;6224425;22;20051;-89
2022/03/02 00:34:33;;;;;;;43.75;26.25;;;5.30;99.90;;;;;;6234838;22;20015;-89
2022/03/02 00:37:06;;;;;;;44.42;27.05;;;5.30;99.90;;;;;;6224516;22;20019;-89
2022/03/02 00:39:42;;;;;;;45.25;26.77;;;5.30;99.90;;;;;;6224567;22;20015;-89
2022/03/02 00:42:11;;;;;;;46.15;27.17;;;5.30;99.90;;;;;;6249125;22;20462;-90
2022/03/02 00:44:53;;;;;;;;;;;;;;;;;;;;;
2022/03/02 00:47:21;;;;;;;42.15;25.98;;;5.20;99.90;;;;;;6226234;22;20016;-89
2022/03/02 00:49:50;;;;;;;43.80;27.40;;;5.20;99.90;;;;;;6225006;22;20022;-88
2022/03/02 00:52:22;;;;;;;46.55;26.58;;;5.20;99.90;;;;;;6223343;22;20020;-88
2022/03/02 00:54:51;;;;;;;44.13;26.75;;;5.20;99.90;;;;;;6224355;22;20019;-88
2022/03/02 00:57:33;;;;;;;48.03;26.98;;;5.20;99.90;;;;;;6223624;22;20015;-89
2022/03/02 01:00:09;;;;;;;42.80;26.67;;;5.20;99.90;;;;;;6222628;22;20073;-91
2022/03/02 01:02:51;;;;;;;47.78;27.30;;;5.20;99.90;;;;;;6249438;22;20016;-89
2022/03/02 01:05:20;;;;;;;46.55;26.48;;;5.20;99.90;;;;;;6225992;22;20556;-88
2022/03/02 01:07:53;;;;;;;45.72;26.55;;;5.20;99.90;;;;;;6223806;22;20454;-88
2022/03/02 01:10:22;;;;;;;50.05;28.10;;;5.20;99.90;;;;;;6223300;22;20498;-89
2022/03/02 01:13:18;;;;;;;;;;;;;;;;;;;;;
2022/03/02 01:15:52;;;;;;;49.55;28.17;;;5.30;99.90;;;;;;6236456;22;20461;-90
2022/03/02 01:18:31;;;;;;;;;;;;;;;;;;;;;
2022/03/02 01:21:20;;;;;;;46.50;27.27;;;5.20;99.90;;;;;;6249008;22;20386;-89
2022/03/02 01:23:56;;;;;;;47.22;27.90;;;5.20;99.90;;;;;;6180691;22;20066;-89
2022/03/02 01:26:31;;;;;;;;;;;5.20;99.90;;;;;;6224868;22;20015;-89
2022/03/02 01:29:23;;;;;;;45.25;26.67;;;5.10;99.90;;;;;;6222488;22;19957;-90
2022/03/02 01:32:10;;;;;;;46.22;26.80;;;5.10;99.90;;;;;;6222808;22;20027;-88
2022/03/02 01:34:36;;;;;;;;;;;5.10;99.90;;;;;;6222786;22;20091;-89
2022/03/02 01:37:03;;;;;;;48.25;28.25;;;5.10;99.90;;;;;;6247849;22;19915;-91
2022/03/02 01:39:41;;;;;;;45.70;26.38;;;5.10;99.90;;;;;;6222678;22;20019;-89
2022/03/02 01:42:20;;;;;;;45.88;28.08;;;5.20;99.90;;;;;;6221727;22;20522;-89
2022/03/02 01:45:03;;;;;;;46.88;26.85;;;5.10;99.90;;;;;;6222357;22;20023;-89
2022/03/02 01:47:34;;;;;;;37.97;20.50;;;5.20;99.90;;;;;;6222916;22;20435;-90
2022/03/02 01:50:09;;;;;;;47.38;28.15;;;5.10;99.90;;;;;;6222552;22;20378;-88
2022/03/02 01:52:43;;;;;;;51.07;27.77;;;5.10;99.90;;;;;;6225326;22;20098;-87
2022/03/02 01:55:13;;;;;;;50.00;28.17;;;5.10;99.90;;;;;;6222818;22;20270;-89
2022/03/02 01:58:00;;;;;;;;;;;;;;;;;;;;;
2022/03/02 02:00:31;;;;;;;;;;;5.10;99.90;;;;;;6248788;22;20019;-89
2022/03/02 02:03:19;;;;;;;48.67;27.95;;;5.00;99.90;;;;;;6198204;22;19915;-89
2022/03/02 02:06:30;;;;;;;48.63;27.35;;;5.00;99.90;;;;;;6224359;22;20015;-88
2022/03/02 02:08:59;;;;;;;50.35;27.65;;;5.00;99.90;;;;;;6246958;22;20042;-88
2022/03/02 02:11:39;;;;;;;50.35;27.75;;;5.00;99.90;;;;;;6198162;22;20047;-88
2022/03/02 02:14:13;;;;;;;50.20;28.42;;;5.00;99.90;;;;;;6225156;22;20038;-92
2022/03/02 02:16:41;;;;;;;51.38;28.23;;;5.00;99.90;;;;;;6222796;22;20050;-89
2022/03/02 02:19:10;;;;;;;51.50;28.77;;;5.00;99.90;;;;;;6222641;22;20022;-89
2022/03/02 02:21:51;;;;;;;;;;;;;;;;;;;;;
2022/03/02 02:24:28;;;;;;;49.55;28.25;;;5.00;99.90;;;;;;6224359;22;20015;-90
2022/03/02 02:27:00;;;;;;;52.13;29.00;;;5.00;99.90;;;;;;6223476;22;20012;-88
2022/03/02 02:29:38;;;;;;;54.50;29.73;;;5.00;99.90;;;;;;6223035;22;20091;-88
2022/03/02 02:32:23;;;;;;;51.75;29.65;;;4.90;99.90;;;;;;6270773;22;20019;-88
2022/03/02 02:34:51;;;;;;;53.97;29.08;;;4.90;99.90;;;;;;6222913;22;20019;-87
2022/03/02 02:37:23;;;;;;;55.10;29.50;;;4.80;99.90;;;;;;6221962;22;20023;-88
2022/03/02 02:40:03;;;;;;;58.58;31.35;;;4.90;99.90;;;;;;6223221;22;20012;-88
2022/03/02 02:42:29;;;;;;;52.08;30.48;;;4.90;99.90;;;;;;6220944;22;20041;-87
2022/03/02 02:45:14;;;;;;;53.47;31.00;;;4.90;99.90;;;;;;6222558;22;20055;-88
2022/03/02 02:47:40;;;;;;;55.97;31.58;;;4.90;99.90;;;;;;6222806;22;20016;-88
2022/03/02 02:50:41;;;;;;;52.85;31.58;;;4.80;99.90;;;;;;6273150;22;20059;-91
2022/03/02 02:53:19;;;;;;;59.85;31.17;;;4.90;99.90;;;;;;6208165;22;20020;-92
2022/03/02 02:55:59;;;;;;;58.40;30.77;;;4.80;99.90;;;;;;6223804;22;20055;-87
2022/03/02 02:58:43;;;;;;;56.13;31.88;;;4.80;99.90;;;;;;6175346;22;20022;-88
2022/03/02 03:01:20;;;;;;;56.97;32.65;;;4.80;99.90;;;;;;6221654;22;20015;-89
2022/03/02 03:04:09;;;;;;;59.53;33.15;;;4.80;99.90;;;;;;6221892;22;20536;-88
2022/03/02 03:06:39;;;;;;;58.63;32.00;;;4.70;99.90;;;;;;6222943;22;20722;-88
2022/03/02 03:09:11;;;;;;;56.55;32.20;;;4.80;99.90;;;;;;6222816;22;20504;-88
2022/03/02 03:11:49;;;;;;;55.75;31.75;;;4.70;99.90;;;;;;6221644;22;20339;-89
2022/03/02 03:14:23;;;;;;;61.45;33.78;;;4.70;99.90;;;;;;6247291;22;20016;-87
2022/03/02 03:16:53;;;;;;;57.75;33.10;;;4.70;99.90;;;;;;6222587;22;20058;-89
2022/03/02 03:19:21;;;;;;;62.63;33.28;;;4.70;99.90;;;;;;6223212;22;20509;-89
2022/03/02 03:22:06;;;;;;;61.97;34.60;;;4.70;99.90;;;;;;6246776;22;20451;-89
2022/03/02 03:24:33;;;;;;;55.57;31.83;;;4.60;99.90;;;;;;6246257;22;20373;-87
2022/03/02 03:27:02;;;;;;;60.10;33.60;;;4.60;99.90;;;;;;6222611;22;20578;-87
2022/03/02 03:29:30;;;;;;;58.97;32.97;;;4.60;99.90;;;;;;6216850;23;20024;-88
2022/03/02 03:32:01;;;;;;;58.42;32.25;;;4.60;99.90;;;;;;6217858;23;20027;-88
2022/03/02 03:34:29;;;;;;;58.47;33.28;;;4.60;99.90;;;;;;6167269;23;20024;-90
2022/03/02 03:37:05;;;;;;;61.20;34.75;;;4.50;99.90;;;;;;6193291;23;20012;-87
2022/03/02 03:39:37;;;;;;;62.83;34.13;;;4.50;99.90;;;;;;6218133;23;20071;-87
2022/03/02 03:42:08;;;;;;;58.97;33.85;;;4.40;99.90;;;;;;6192866;23;20102;-88
2022/03/02 03:44:41;;;;;;;57.67;33.00;;;4.40;99.90;;;;;;6215608;23;20239;-88
2022/03/02 03:47:12;;;;;;;64.10;34.28;;;4.40;99.90;;;;;;6190900;23;20077;-88
2022/03/02 03:49:50;;;;;;;63.72;35.20;;;4.40;99.90;;;;;;6198716;23;20031;-89
2022/03/02 03:52:20;;;;;;;58.72;32.95;;;4.40;99.90;;;;;;6210269;23;20028;-92
2022/03/02 03:54:59;;;;;;;61.40;33.30;;;4.40;99.90;;;;;;6235985;23;20031;-88
2022/03/02 03:57:32;;;;;;;62.15;34.03;;;4.20;99.90;;;;;;6232563;23;20022;-89
2022/03/02 04:00:09;;;;;;;62.22;34.70;;;4.30;99.90;;;;;;6204036;23;20084;-88
2022/03/02 04:02:44;;;;;;;63.78;34.85;;;4.30;99.90;;;;;;6198856;23;20054;-88
2022/03/02 04:05:13;;;;;;;63.53;34.28;;;4.20;99.90;;;;;;6193863;23;20016;-88
2022/03/02 04:07:51;;;;;;;;;;;;;;;;;;;;;
2022/03/02 04:10:33;;;;;;;64.03;34.13;;;4.20;99.90;;;;;;6219050;23;20336;-91
2022/03/02 04:13:10;;;;;;;59.95;33.13;;;4.20;99.90;;;;;;6193496;23;20028;-90
2022/03/02 04:15:51;;;;;;;63.42;35.22;;;4.10;99.90;;;;;;6194733;23;20055;-88
2022/03/02 04:18:30;;;;;;;62.50;34.65;;;4.10;99.90;;;;;;6192297;23;20024;-91
2022/03/02 04:21:01;;;;;;;60.65;33.40;;;4.10;99.90;;;;;;6193628;23;20107;-88
2022/03/02 04:23:30;;;;;;;62.97;34.55;;;4.00;99.90;;;;;;6217905;23;20016;-90
2022/03/02 04:26:03;;;;;;;61.38;34.53;;;3.90;99.90;;;;;;6191122;23;20028;-88
2022/03/02 04:28:40;;;;;;;59.90;33.28;;;3.90;99.90;;;;;;6192963;23;20044;-88
2022/03/02 04:31:11;;;;;;;61.40;32.65;;;3.80;99.90;;;;;;6218867;22;20019;-89
2022/03/02 04:33:40;;;;;;;61.63;35.25;;;3.80;99.90;;;;;;6223834;22;20023;-89
2022/03/02 04:36:13;;;;;;;64.43;33.70;;;3.70;99.90;;;;;;6224164;22;20027;-88
2022/03/02 04:38:41;;;;;;;59.78;34.60;;;3.70;99.90;;;;;;6222990;22;20016;-88
2022/03/02 04:41:12;;;;;;;63.47;34.78;;;3.70;99.90;;;;;;6223928;22;20016;-88
2022/03/02 04:43:45;;;;;;;62.42;33.88;;;3.50;99.90;;;;;;6223385;22;20062;-88
2022/03/02 04:46:11;;;;;;;61.05;34.72;;;3.50;99.90;;;;;;6224073;22;20086;-88
2022/03/02 04:49:10;;;;;;;61.60;34.72;;;3.30;99.90;;;;;;6222107;22;20061;-89
2022/03/02 04:51:49;;;;;;;64.00;33.97;;;3.20;99.90;;;;;;6214184;22;20073;-87
2022/03/02 04:57:10;;;;;;;64.13;34.42;;;3.10;99.90;;;;;;6248352;22;20055;-88
2022/03/02 04:59:41;;;;;;;68.55;34.10;;;2.90;99.90;;;;;;6224651;22;20026;-87
2022/03/02 05:02:12;;;;;;;65.53;32.88;;;2.80;99.90;;;;;;6223665;22;20019;-88
2022/03/02 05:04:41;;;;;;;66.40;34.75;;;2.70;99.90;;;;;;6224364;22;20397;-86
2022/03/02 05:07:09;;;;;;;67.10;35.28;;;2.60;99.90;;;;;;6223747;22;20055;-90
2022/03/02 05:09:41;;;;;;;66.68;35.35;;;2.50;99.90;;;;;;6223122;22;20018;-87
2022/03/02 05:12:11;;;;;;;67.93;34.72;;;2.50;99.90;;;;;;6223517;22;20795;-86
2022/03/02 05:14:41;;;;;;;70.00;35.13;;;2.40;99.90;;;;;;6223001;22;20058;-88
2022/03/02 05:17:10;;;;;;;65.68;32.70;;;2.30;99.90;;;;;;6223656;22;20019;-89
2022/03/02 05:19:42;;;;;;;63.50;34.47;;;2.30;99.90;;;;;;6248199;22;20098;-88
2022/03/02 05:22:13;;;;;;;70.30;36.13;;;2.20;99.90;;;;;;6198515;22;20487;-88
2022/03/02 05:24:50;;;;;;;66.47;33.45;;;2.10;99.90;;;;;;6223907;22;20026;-88
2022/03/02 05:27:23;;;;;;;67.55;34.60;;;2.10;99.90;;;;;;6223453;22;20058;-88
2022/03/02 05:29:52;;;;;;;68.95;34.95;;;2.10;99.90;;;;;;6222605;22;20042;-88
2022/03/02 05:32:22;;;;;;;67.95;36.03;;;2.00;99.90;;;;;;6246688;22;20043;-88
2022/03/02 05:34:50;;;;;;;72.45;35.20;;;1.90;99.90;;;;;;6273371;22;20042;-89
2022/03/02 05:37:24;;;;;;;76.05;36.88;;;1.80;99.90;;;;;;6172975;22;20019;-87
2022/03/02 05:39:53;;;;;;;71.28;35.85;;;1.80;99.90;;;;;;6248933;22;20058;-88
2022/03/02 05:42:30;;;;;;;70.85;35.33;;;1.80;99.90;;;;;;6248598;22;20328;-89
2022/03/02 05:45:27;;;;;;;73.93;37.10;;;1.70;99.90;;;;;;6223257;22;20455;-89
2022/03/02 05:48:12;;;;;;;68.68;35.05;;;1.70;99.90;;;;;;6222127;22;20019;-89
2022/03/02 05:50:44;;;;;;;74.78;36.90;;;1.60;99.90;;;;;;6222892;22;20050;-90
2022/03/02 05:53:12;;;;;;;71.05;36.10;;;1.40;99.90;;;;;;6248726;22;20389;-88
2022/03/02 05:55:43;;;;;;;71.70;36.40;;;1.40;99.90;;;;;;6247626;22;20016;-89
2022/03/02 05:58:12;;;;;;;68.45;34.38;;;1.30;99.90;;;;;;6223397;22;20352;-90
2022/03/02 06:01:00;;;;;;;71.65;34.20;;;1.20;99.90;;;;;;6222605;22;20023;-88
2022/03/02 06:03:34;;;;;;;66.65;35.47;;;1.10;99.90;;;;;;6223582;22;20019;-90
2022/03/02 06:06:10;;;;;;;71.53;35.83;;;1.00;99.90;;;;;;6223427;22;20015;-89
2022/03/02 06:08:43;;;;;;;73.72;36.70;;;1.00;99.90;;;;;;6223884;22;20022;-89
2022/03/02 06:11:13;;;;;;;75.20;37.35;;;1.00;99.90;;;;;;6222842;22;20012;-88
2022/03/02 06:13:44;;;;;;;73.47;35.40;;;0.90;99.90;;;;;;6222407;22;20465;-90
2022/03/02 06:16:10;;;;;;;75.95;35.70;;;0.90;99.90;;;;;;6174072;22;20070;-89
2022/03/02 06:18:44;;;;;;;74.50;37.65;;;0.80;99.90;;;;;;6222713;22;20024;-88
2022/03/02 06:21:23;;;;;;;76.72;37.30;;;0.80;99.90;;;;;;6222141;22;20099;-86
2022/03/02 06:23:54;;;;;;;78.63;37.70;;;0.80;99.90;;;;;;6220141;22;20019;-87
2022/03/02 06:26:43;;;;;;;77.88;38.80;;;0.80;99.90;;;;;;6222259;22;20031;-90
2022/03/02 06:29:14;;;;;;;75.15;36.30;;;0.80;99.90;;;;;;6211136;22;20110;-90
2022/03/02 06:31:42;;;;;;;73.25;36.22;;;0.90;99.90;;;;;;6225422;22;20020;-90
2022/03/02 06:34:23;;;;;;;;;;;;;;;;;;;;;
2022/03/02 06:36:58;;;;;;;108.07;54.97;;;0.90;99.90;;;;;;6231901;22;20050;-89
2022/03/02 06:43:02;;;;;;;;;;;;;;;;;;;;;
2022/03/02 06:46:04;;;;;;;75.15;37.53;;;0.70;99.90;;;;;;6258070;22;20019;-91
2022/03/02 06:49:02;;;;;;;76.00;35.67;;;0.90;99.90;;;;;;6257734;22;20024;-90
2022/03/02 06:54:31;;;;;;;71.50;35.83;;;0.90;99.90;;;;;;6206986;22;20469;-90
2022/03/02 06:57:20;;;;;;;81.43;35.70;;;0.90;99.90;;;;;;6222475;22;20016;-92
2022/03/02 07:03:58;;;;;;;;;;;;;;;;;;;;;
2022/03/02 07:06:39;;;;;;;;;;;;;;;;;;;;;
2022/03/02 07:16:08;;;;;;;73.88;35.83;;;1.10;99.90;;;;;;6097978;23;20021;-91
2022/03/02 07:18:45;;;;;;;70.80;35.35;;;1.20;99.90;;;;;;6090898;23;20022;-91
2022/03/02 07:21:33;;;;;;;72.43;34.92;;;1.20;99.90;;;;;;6125643;23;20014;-90
2022/03/02 07:28:19;;;;;;;;;;;;;;;;;;;;;
2022/03/02 07:31:57;;;;;;;;;;;;;;;;;;;;;
2022/03/02 07:35:43;;;;;;;;;;;;;;;;;;;;;
2022/03/02 07:38:53;;;;;;;;;;;;;;;;;;;;;
2022/03/02 07:41:28;;;;;;;68.57;33.58;;;1.60;99.90;;;;;;6242796;23;20020;-91
2022/03/02 07:44:56;;;;;;;;;;;;;;;;;;;;;
2022/03/02 07:47:35;;;;;;;;;;;;;;;;;;;;;
2022/03/02 07:50:49;;;;;;;;;;;;;;;;;;;;;
2022/03/02 07:53:36;;;;;;;;;;;;;;;;;;;;;
2022/03/02 07:56:15;;;;;;;;;;;;;;;;;;;;;
2022/03/02 08:21:46;;;;;;;53.63;29.17;;;2.50;99.90;;;;;;6028570;23;20007;-93
2022/03/02 09:06:19;;;;;;;52.70;30.05;;;3.70;99.90;;;;;;6213960;22;20017;-89
2022/03/02 09:17:36;;;;;;;;;;;;;;;;;;;;;
2022/03/02 09:21:06;;;;;;;;;;;;;;;;;;;;;
2022/03/02 09:31:41;;;;;;;;;;;;;;;;;;;;;
2022/03/02 09:34:59;;;;;;;;;;;;;;;;;;;;;
2022/03/02 09:38:25;;;;;;;;;;;;;;;;;;;;;
2022/03/02 09:52:58;;;;;;;46.60;26.38;;;5.00;99.90;;;;;;6021601;23;20027;-91
2022/03/02 10:00:17;;;;;;;;;;;;;;;;;;;;;
2022/03/02 10:13:59;;;;;;;41.97;24.02;;;5.80;99.90;;;;;;5782767;24;20055;-90
2022/03/02 10:16:48;;;;;;;;;;;;;;;;;;;;;
2022/03/02 10:23:57;;;;;;;;;;;;;;;;;;;;;
2022/03/02 10:44:16;;;;;;;;;;;;;;;;;;;;;
2022/03/02 10:48:09;;;;;;;;;;;;;;;;;;;;;
2022/03/02 10:51:30;;;;;;;;;;;;;;;;;;;;;
2022/03/02 11:05:28;;;;;;;;;;;;;;;;;;;;;
2022/03/02 11:11:56;;;;;;;;;;;;;;;;;;;;;
2022/03/02 11:19:28;;;;;;;;;;;;;;;;;;;;;
2022/03/02 11:22:58;;;;;;;;;;;;;;;;;;;;;
2022/03/02 11:25:45;;;;;;;37.50;22.23;;;8.50;95.10;;;;;;5798903;24;20076;-91
2022/03/02 11:28:28;;;;;;;33.85;21.77;;;8.60;95.80;;;;;;5834482;24;20078;-91
2022/03/02 11:35:08;;;;;;;;;;;;;;;;;;;;;
2022/03/02 11:49:56;;;;;;;;;;;;;;;;;;;;;
2022/03/02 11:53:06;;;;;;;35.13;20.73;;;9.30;90.50;;;;;;5828329;24;20022;-93
2022/03/02 11:56:12;;;;;;;34.75;19.85;;;9.40;90.60;;;;;;5842292;24;20110;-91
2022/03/02 12:02:56;;;;;;;32.08;19.25;;;9.60;87.20;;;;;;5824469;24;20031;-92
2022/03/02 12:06:16;;;;;;;;;;;;;;;;;;;;;
2022/03/02 12:09:07;;;;;;;;;;;;;;;;;;;;;
2022/03/02 12:12:38;;;;;;;;;;;;;;;;;;;;;
2022/03/02 12:16:15;;;;;;;;;;;;;;;;;;;;;
2022/03/02 12:26:15;;;;;;;33.20;20.25;;;10.10;81.20;;;;;;5828902;24;20030;-85
2022/03/02 12:59:09;;;;;;;;;;;;;;;;;;;;;
2022/03/02 13:26:29;;;;;;;;;;;;;;;;;;;;;
2022/03/02 14:18:57;;;;;;;;;;;;;;;;;;;;;
2022/03/02 14:26:07;;;;;;;25.70;16.00;;;18.90;40.80;;;;;;5856292;24;20023;-93
2022/03/02 15:20:00;;;;;;;25.25;15.13;;;10.60;57.00;;;;;;5966134;23;20027;-93
2022/03/02 15:26:10;;;;;;;23.70;15.05;;;10.10;60.20;;;;;;6138360;23;20021;-91
2022/03/02 15:29:10;;;;;;;;;;;;;;;;;;;;;
2022/03/02 15:32:38;;;;;;;;;;;;;;;;;;;;;
2022/03/02 15:36:06;;;;;;;;;;;;;;;;;;;;;
2022/03/02 15:42:44;;;;;;;24.60;14.65;;;9.30;59.40;;;;;;6174352;23;19967;-94
2022/03/02 15:45:28;;;;;;;23.77;14.68;;;9.30;63.90;;;;;;6175174;23;20072;-93
2022/03/02 15:48:16;;;;;;;25.00;14.27;;;9.20;62.40;;;;;;6128922;23;20072;-91
2022/03/02 15:51:18;;;;;;;24.52;15.18;;;9.00;63.10;;;;;;6148821;23;20017;-94
2022/03/02 15:53:49;;;;;;;22.90;15.15;;;9.00;61.60;;;;;;6098752;23;20025;-92
2022/03/02 15:56:48;;;;;;;;;;;;;;;;;;;;;
2022/03/02 15:59:47;;;;;;;;;;;;;;;;;;;;;
2022/03/02 16:02:56;;;;;;;27.27;16.25;;;8.70;65.60;;;;;;6156578;23;20726;-91
2022/03/02 16:05:50;;;;;;;26.92;16.50;;;8.70;66.30;;;;;;6119332;23;20370;-91
2022/03/02 16:11:54;;;;;;;25.83;15.25;;;8.50;66.10;;;;;;5961435;24;20386;-90
2022/03/02 16:14:22;;;;;;;24.42;15.27;;;8.50;68.80;;;;;;6136768;23;20326;-90
2022/03/02 16:16:55;;;;;;;24.20;14.48;;;8.40;68.70;;;;;;6128890;23;20021;-88
2022/03/02 16:19:27;;;;;;;26.75;15.88;;;8.30;68.70;;;;;;6127668;23;20022;-90
2022/03/02 16:21:55;;;;;;;28.65;16.23;;;8.30;69.00;;;;;;6153284;23;20079;-88
2022/03/02 16:24:32;;;;;;;23.92;14.77;;;8.20;69.10;;;;;;6104298;23;20025;-91
2022/03/02 16:27:26;;;;;;;27.25;16.00;;;8.10;69.70;;;;;;6129723;23;20025;-92
2022/03/02 16:30:03;;;;;;;25.23;16.55;;;8.00;70.00;;;;;;6137565;23;20023;-93
2022/03/02 16:32:45;;;;;;;;;;;;;;;;;;;;;
2022/03/02 16:35:52;;;;;;;;;;;;;;;;;;;;;
2022/03/02 16:45:57;;;;;;;;;;;;;;;;;;;;;
2022/03/02 16:48:37;;;;;;;33.42;20.40;;;7.40;78.00;;;;;;5954469;24;20457;-87
2022/03/02 16:51:11;;;;;;;39.63;24.80;;;7.20;79.40;;;;;;5887246;24;20053;-88
2022/03/02 16:54:11;;;;;;;54.47;31.52;;;7.10;80.30;;;;;;5949391;24;20053;-88
2022/03/02 16:56:53;;;;;;;;;;;;;;;;;;;;;
2022/03/02 16:59:24;;;;;;;33.78;20.83;;;6.90;82.20;;;;;;6053018;23;20013;-87
2022/03/02 17:05:31;;;;;;;34.63;20.77;;;6.60;83.70;;;;;;6156952;23;20044;-87
2022/03/02 17:11:21;;;;;;;39.05;20.15;;;6.30;85.60;;;;;;6132744;23;20033;-88
2022/03/02 17:14:21;;;;;;;38.95;20.75;;;6.20;87.00;;;;;;6131041;23;20389;-87
2022/03/02 17:20:22;;;;;;;37.83;20.88;;;5.90;89.20;;;;;;6156859;23;20101;-88
2022/03/02 17:22:51;;;;;;;41.22;22.63;;;5.70;90.20;;;;;;6131091;23;20049;-87
2022/03/02 17:25:32;;;;;;;41.20;21.73;;;5.60;90.80;;;;;;6130571;23;20045;-88
2022/03/02 17:28:10;;;;;;;37.08;21.83;;;5.60;91.30;;;;;;6106025;23;20014;-88
2022/03/02 17:31:11;;;;;;;65.75;35.45;;;5.50;91.80;;;;;;6108338;23;20025;-91
2022/03/02 17:33:52;;;;;;;44.45;23.80;;;5.40;92.00;;;;;;6130968;23;20104;-89
2022/03/02 17:36:22;;;;;;;44.42;25.10;;;5.40;92.60;;;;;;6130782;23;20022;-88
2022/03/02 17:39:11;;;;;;;49.65;28.00;;;5.20;93.00;;;;;;6107137;23;20013;-88
2022/03/02 17:41:44;;;;;;;42.63;24.60;;;5.20;93.30;;;;;;6130965;23;20345;-88
2022/03/02 17:44:12;;;;;;;50.30;30.75;;;5.10;93.70;;;;;;6131435;23;20053;-88
2022/03/02 17:47:01;;;;;;;42.78;24.77;;;5.00;94.00;;;;;;6131437;23;20017;-88
2022/03/02 17:49:35;;;;;;;37.63;22.60;;;5.00;94.40;;;;;;6124785;23;20036;-88
2022/03/02 17:52:12;;;;;;;;;;;;;;;;;;;;;
2022/03/02 17:54:43;;;;;;;39.45;23.92;;;4.70;95.10;;;;;;6175968;23;20025;-89
2022/03/02 17:57:25;;;;;;;38.00;22.92;;;4.60;95.50;;;;;;6173256;23;20065;-88
2022/03/02 17:59:54;;;;;;;35.13;21.65;;;4.60;96.10;;;;;;6145933;23;20029;-88
2022/03/02 18:02:40;;;;;;;40.67;22.85;;;4.50;96.40;;;;;;6140893;23;20022;-88
2022/03/02 18:05:34;;;;;;;36.03;21.83;;;4.40;96.90;;;;;;6133858;23;20079;-87
2022/03/02 18:08:22;;;;;;;38.15;22.15;;;4.40;97.10;;;;;;6115722;23;20017;-87
2022/03/02 18:10:53;;;;;;;37.72;22.02;;;4.30;97.40;;;;;;6156633;23;20018;-87
2022/03/02 18:13:44;;;;;;;43.17;23.98;;;4.30;98.00;;;;;;6135512;23;20076;-88
2022/03/02 18:16:12;;;;;;;37.80;22.60;;;4.10;98.40;;;;;;6107462;23;20465;-88
2022/03/02 18:18:43;;;;;;;44.85;25.38;;;4.10;98.70;;;;;;6083135;23;20584;-87
2022/03/02 18:21:11;;;;;;;42.85;24.70;;;4.10;99.10;;;;;;6084902;23;20450;-87
2022/03/02 18:23:40;;;;;;;41.45;23.90;;;4.00;99.50;;;;;;6156213;23;20020;-87
2022/03/02 18:29:40;;;;;;;42.30;24.15;;;3.90;99.90;;;;;;6156654;23;20076;-87
2022/03/02 18:32:12;;;;;;;41.13;23.67;;;3.80;99.90;;;;;;6108867;23;20021;-88
2022/03/02 18:35:06;;;;;;;;;;;;;;;;;;;;;
2022/03/02 18:42:02;;;;;;;43.10;23.55;;;3.70;99.90;;;;;;6098089;23;20038;-87
2022/03/02 18:52:23;;;;;;;40.67;24.05;;;3.50;99.90;;;;;;6132291;23;20016;-85
2022/03/02 18:58:11;;;;;;;43.85;24.58;;;3.50;99.90;;;;;;6156101;23;20449;-88
2022/03/02 19:00:37;;;;;;;44.42;25.55;;;3.50;99.90;;;;;;6083282;23;20048;-87
2022/03/02 19:06:57;;;;;;;44.25;24.45;;;3.50;99.90;;;;;;6157304;23;20040;-87
2022/03/02 19:13:06;;;;;;;50.85;26.38;;;3.30;99.90;;;;;;6159308;23;20009;-87
2022/03/02 19:15:35;;;;;;;51.55;28.00;;;3.20;99.90;;;;;;6084578;23;20153;-89
2022/03/02 19:18:00;;;;;;;52.47;28.42;;;3.20;99.90;;;;;;6106718;23;20026;-87
2022/03/02 19:20:51;;;;;;;51.63;28.15;;;3.00;99.90;;;;;;6107856;23;20080;-87
2022/03/02 19:27:05;;;;;;;53.95;27.50;;;3.00;99.90;;;;;;6158938;23;20384;-90
2022/03/02 19:33:35;;;;;;;;;;;;;;;;;;;;;
2022/03/02 19:37:05;;;;;;;;;;;;;;;;;;;;;
2022/03/02 19:40:13;;;;;;;56.95;29.08;;;2.80;99.90;;;;;;6161134;23;20021;-90
2022/03/02 19:43:37;;;;;;;57.70;29.80;;;2.70;99.90;;;;;;6133445;23;20021;-94
2022/03/02 19:46:07;;;;;;;57.78;29.98;;;2.80;99.90;;;;;;5963184;23;20098;-88
2022/03/02 19:48:37;;;;;;;61.88;30.17;;;2.80;99.90;;;;;;6115085;23;20017;-88
2022/03/02 19:51:10;;;;;;;58.72;30.13;;;2.70;99.90;;;;;;6107909;23;20025;-90
2022/03/02 19:54:08;;;;;;;;;;;;;;;;;;;;;
2022/03/02 19:56:57;;;;;;;63.35;30.67;;;2.60;99.90;;;;;;6113663;23;20065;-89
2022/03/02 19:59:26;;;;;;;62.90;31.65;;;2.50;99.90;;;;;;6107359;23;20033;-91
2022/03/02 20:01:55;;;;;;;64.13;33.72;;;2.40;99.90;;;;;;6083138;23;20021;-92
2022/03/02 20:04:35;;;;;;;61.38;32.25;;;2.40;99.90;;;;;;6107195;23;20021;-91
2022/03/02 20:07:17;;;;;;;63.83;32.63;;;2.30;99.90;;;;;;6106476;23;20013;-90
2022/03/02 20:09:55;;;;;;;;;;;;;;;;;;;;;
2022/03/02 20:12:46;;;;;;;59.85;31.55;;;2.20;99.90;;;;;;6109420;23;20013;-91
2022/03/02 20:15:15;;;;;;;66.25;33.92;;;2.10;99.90;;;;;;6108521;23;20017;-85
2022/03/02 20:17:43;;;;;;;66.10;33.47;;;2.00;99.90;;;;;;6129433;23;20053;-89
2022/03/02 20:20:10;;;;;;;75.68;36.58;;;1.90;99.90;;;;;;6130875;23;20021;-94
2022/03/02 20:22:38;;;;;;;71.65;34.80;;;1.90;99.90;;;;;;6139440;23;20073;-91
2022/03/02 20:25:07;;;;;;;79.25;37.30;;;1.80;99.90;;;;;;6157280;23;20025;-89
2022/03/02 20:28:23;;;;;;;81.93;38.83;;;1.80;99.90;;;;;;6130965;23;20017;-92
2022/03/02 20:30:53;;;;;;;73.00;34.30;;;1.80;99.90;;;;;;6154429;23;20025;-91
2022/03/02 20:33:28;;;;;;;65.05;32.90;;;1.80;99.90;;;;;;6128849;23;20137;-91
2022/03/02 20:35:59;;;;;;;69.80;34.38;;;1.70;99.90;;;;;;6131665;23;20057;-89
2022/03/02 20:38:31;;;;;;;71.15;35.92;;;1.80;99.90;;;;;;6130890;23;20073;-90
2022/03/02 20:40:58;;;;;;;69.15;34.83;;;1.70;99.90;;;;;;6130546;23;20053;-90
2022/03/02 20:43:25;;;;;;;68.93;35.03;;;1.60;99.90;;;;;;6128625;23;20076;-89
2022/03/02 20:45:52;;;;;;;74.90;37.05;;;1.60;99.90;;;;;;6129861;23;20025;-87
2022/03/02 20:48:41;;;;;;;74.88;36.08;;;1.50;99.90;;;;;;6153105;23;20095;-87
2022/03/02 20:51:10;;;;;;;76.90;36.90;;;1.50;99.90;;;;;;6153447;23;20448;-89
2022/03/02 20:53:44;;;;;;;78.82;38.80;;;1.50;99.90;;;;;;6130068;23;20023;-88
2022/03/02 20:56:14;;;;;;;77.10;37.20;;;1.40;99.90;;;;;;6129113;23;20021;-87
2022/03/02 20:58:53;;;;;;;76.55;38.05;;;1.50;99.90;;;;;;6106981;23;20017;-89
2022/03/02 21:01:43;;;;;;;87.00;39.30;;;1.50;99.90;;;;;;6129104;23;20080;-88
2022/03/02 21:04:17;;;;;;;84.90;39.17;;;1.50;99.90;;;;;;6152797;23;20526;-87
2022/03/02 21:06:55;;;;;;;81.78;40.63;;;1.40;99.90;;;;;;6130054;23;20025;-89
2022/03/02 21:09:23;;;;;;;85.68;39.67;;;1.40;99.90;;;;;;6129355;23;20018;-89
2022/03/02 21:11:49;;;;;;;81.50;39.25;;;1.30;99.90;;;;;;6129287;23;20022;-87
2022/03/02 21:14:15;;;;;;;76.78;37.00;;;1.30;99.90;;;;;;6128102;23;20017;-88
2022/03/02 21:19:59;;;;;;;81.80;38.28;;;1.30;99.90;;;;;;6133197;23;20024;-88
2022/03/02 21:22:38;;;;;;;83.25;38.22;;;1.30;99.90;;;;;;6129698;23;20105;-89
2022/03/02 21:25:20;;;;;;;;;;;;;;;;;;;;;
2022/03/02 21:31:32;;;;;;;77.40;37.78;;;1.30;99.90;;;;;;6154824;23;20065;-88
2022/03/02 21:34:18;;;;;;;76.72;39.70;;;1.30;99.90;;;;;;6129505;23;20024;-88
2022/03/02 21:37:27;;;;;;;80.90;38.08;;;1.30;99.90;;;;;;6105907;23;20091;-88
2022/03/02 21:40:17;;;;;;;83.38;38.38;;;1.50;99.90;;;;;;6105649;23;20028;-90
2022/03/02 21:43:10;;;;;;;;;;;;;;;;;;;;;
2022/03/02 21:46:08;;;;;;;83.03;38.78;;;1.30;99.90;;;;;;6130531;23;20020;-88
2022/03/02 21:48:36;;;;;;;78.05;38.38;;;1.30;99.90;;;;;;6114240;23;20018;-88
2022/03/02 21:51:31;;;;;;;80.03;37.42;;;1.30;99.90;;;;;;6127719;23;20084;-88
2022/03/02 21:53:59;;;;;;;84.78;38.05;;;1.30;99.90;;;;;;6130824;23;20077;-87
2022/03/02 21:56:29;;;;;;;76.35;39.28;;;1.20;99.90;;;;;;6103587;23;20021;-88
2022/03/02 21:58:57;;;;;;;74.43;35.63;;;1.10;99.90;;;;;;6104042;23;20013;-89
2022/03/02 22:01:42;;;;;;;84.43;39.90;;;1.10;99.90;;;;;;6103341;23;20025;-88
2022/03/02 22:04:36;;;;;;;78.60;38.92;;;1.10;99.90;;;;;;6108812;23;20017;-89
2022/03/02 22:07:19;;;;;;;82.00;38.55;;;1.00;99.90;;;;;;6104543;23;20445;-88
2022/03/02 22:10:47;;;;;;;83.13;37.58;;;1.00;99.90;;;;;;6128301;23;20022;-88
2022/03/02 22:13:50;;;;;;;;;;;;;;;;;;;;;
2022/03/02 22:19:35;;;;;;;78.88;37.78;;;0.80;99.90;;;;;;6115446;23;20053;-87
2022/03/02 22:22:11;;;;;;;;;;;;;;;;;;;;;